MSCR weather

La Carrera Airport
Jiquilisco, Usulutan, El Salvador

Public forecast

Using degrees Celsius for public forecast. Weather courtesy of forecast.io.

METAR (pilot weather report)

Report is more than 2 hours old.

Closest report is El Papalon Airport, 24.0 nm (44.5 km) ENE. Retrieved 2019/02/20 20:50 UTC (5 hours ago):

MSSM 202050Z 18002KT 9999 SCT035 35/17 Q//// A////

TAF (pilot weather forecast)

Closest forecast is Monse├▒or ├ôscar Arnulfo Romero International Airport, 32.0 nm (59.2 km) WNW. Retrieved 2019/02/21 00:45 UTC (1 hour ago):

TAF MSLP 202125Z 2100/2124 30005KT 9999 FEW047 TX31/2118Z TN23/2110Z FM210300 06004KT CAVOK FM211800 20008KT 9999 SCT037